ROMMA est une association bénévole à but non lucratif. Votre soutien est indispensable : ADHERER à ROMMA ou FAIRE un DON

Crempigny-Bonneguête - (74, Haute-Savoie)

Albanais-Montagne des Princes (500 m)   Longitude: 05° 54' 5" E   Latitude: 45° 57' 0" N Station partenaire n°10
 

Détail journalier du     <<     >>

Température Precipitation Humidité Pression Vent Dir Rafale Dir. rafale Ensol. 20 cm au dessus du sol
Heure (°C) (mm) (%) (hPa) (km/h) (km/h) (min) (°C)
01:00 8.4076101415NO35NO07.8
02:00 8.1076101515NNO32N07.2
03:00 7.6078101513NNO26NO07.2
04:00 7.6077101511NNO27N07.2
05:00 7.1078101512N26NO06.7
06:00 6.6078101511NO24NO06.1
07:00 6.2077101511NNO31N05.6
08:00 5.9077101612N29NNO05.6
09:00 7.0075101611N29NNE206.7
10:00 8.1073101617NNE37NE558.9
11:00 9.3068101616NNE37NNE6010.6
12:00 11.1066101614NE37NE6012.8
13:00 12.1064101611NNE26NNO6013.9
14:00 13.6058101611NE24NNE6015.6
15:00 14.305710169ENE24NNE6016.1
16:00 13.705910157NE23ENE3515.6
17:00 13.305610158NO18NO3014.4
18:00 13.905510158NO21NNE4015.0
19:00 12.3055101613NO29NO4012.2
20:00 10.6058101618NO32NO3510.0
21:00 9.3061101618NO29NO08.3
22:00 8.3064101719NO31NO07.2
23:00 7.6065101717NO27ONO06.7
minuit 7.4065101713NO23NO06.1

Graphique du 12-04-2019

 

Serveur OMMA